sensor_id;sensor_type;location;lat;lon;timestamp;P1;durP1;ratioP1;P2;durP2;ratioP2
34984;SDS011;21190;58.750;17.004;2023-04-24T00:01:39;11.45;;;6.95;;
34984;SDS011;21190;58.750;17.004;2023-04-24T00:04:06;13.65;;;6.93;;
34984;SDS011;21190;58.750;17.004;2023-04-24T00:06:37;11.05;;;6.90;;
34984;SDS011;21190;58.750;17.004;2023-04-24T00:09:04;11.07;;;6.43;;
34984;SDS011;21190;58.750;17.004;2023-04-24T00:11:31;13.15;;;7.20;;
34984;SDS011;21190;58.750;17.004;2023-04-24T00:13:58;10.77;;;6.88;;
34984;SDS011;21190;58.750;17.004;2023-04-24T00:16:25;12.15;;;7.57;;
34984;SDS011;21190;58.750;17.004;2023-04-24T00:18:52;12.63;;;7.60;;
34984;SDS011;21190;58.750;17.004;2023-04-24T00:21:20;9.75;;;6.28;;
34984;SDS011;21190;58.750;17.004;2023-04-24T00:23:47;17.80;;;7.72;;
34984;SDS011;21190;58.750;17.004;2023-04-24T00:26:14;13.60;;;7.18;;
34984;SDS011;21190;58.750;17.004;2023-04-24T00:28:41;14.82;;;7.50;;
34984;SDS011;21190;58.750;17.004;2023-04-24T00:31:08;14.23;;;8.27;;
34984;SDS011;21190;58.750;17.004;2023-04-24T00:33:35;14.60;;;7.97;;
34984;SDS011;21190;58.750;17.004;2023-04-24T00:36:02;15.90;;;7.15;;
34984;SDS011;21190;58.750;17.004;2023-04-24T00:38:29;18.27;;;8.48;;
34984;SDS011;21190;58.750;17.004;2023-04-24T00:40:56;12.23;;;8.20;;
34984;SDS011;21190;58.750;17.004;2023-04-24T00:43:23;13.20;;;7.53;;
34984;SDS011;21190;58.750;17.004;2023-04-24T00:45:50;13.77;;;7.38;;
34984;SDS011;21190;58.750;17.004;2023-04-24T00:48:17;14.85;;;8.48;;
34984;SDS011;21190;58.750;17.004;2023-04-24T00:50:45;20.42;;;8.73;;
34984;SDS011;21190;58.750;17.004;2023-04-24T00:53:12;13.57;;;8.48;;
34984;SDS011;21190;58.750;17.004;2023-04-24T00:55:39;15.93;;;10.23;;
34984;SDS011;21190;58.750;17.004;2023-04-24T00:58:07;17.42;;;9.65;;
34984;SDS011;21190;58.750;17.004;2023-04-24T01:00:34;14.32;;;8.82;;
34984;SDS011;21190;58.750;17.004;2023-04-24T01:03:01;14.90;;;9.57;;
34984;SDS011;21190;58.750;17.004;2023-04-24T01:05:31;17.92;;;9.95;;
34984;SDS011;21190;58.750;17.004;2023-04-24T01:07:59;13.77;;;9.20;;
34984;SDS011;21190;58.750;17.004;2023-04-24T01:10:27;11.75;;;7.68;;
34984;SDS011;21190;58.750;17.004;2023-04-24T01:12:56;15.50;;;8.57;;
34984;SDS011;21190;58.750;17.004;2023-04-24T01:15:24;15.27;;;8.05;;
34984;SDS011;21190;58.750;17.004;2023-04-24T01:17:51;14.35;;;7.82;;
34984;SDS011;21190;58.750;17.004;2023-04-24T01:20:18;14.70;;;8.07;;
34984;SDS011;21190;58.750;17.004;2023-04-24T01:22:47;15.65;;;9.18;;
34984;SDS011;21190;58.750;17.004;2023-04-24T01:25:14;15.02;;;9.00;;
34984;SDS011;21190;58.750;17.004;2023-04-24T01:27:41;18.92;;;10.27;;
34984;SDS011;21190;58.750;17.004;2023-04-24T01:30:09;18.45;;;10.35;;
34984;SDS011;21190;58.750;17.004;2023-04-24T01:32:36;18.45;;;10.20;;
34984;SDS011;21190;58.750;17.004;2023-04-24T01:35:04;24.25;;;10.60;;
34984;SDS011;21190;58.750;17.004;2023-04-24T01:37:31;21.20;;;10.82;;
34984;SDS011;21190;58.750;17.004;2023-04-24T01:39:59;18.00;;;10.80;;
34984;SDS011;21190;58.750;17.004;2023-04-24T01:42:26;20.73;;;10.93;;
34984;SDS011;21190;58.750;17.004;2023-04-24T01:44:53;20.77;;;11.32;;
34984;SDS011;21190;58.750;17.004;2023-04-24T01:47:20;23.52;;;11.85;;
34984;SDS011;21190;58.750;17.004;2023-04-24T01:49:48;22.45;;;12.07;;
34984;SDS011;21190;58.750;17.004;2023-04-24T01:52:16;22.75;;;12.82;;
34984;SDS011;21190;58.750;17.004;2023-04-24T01:54:44;32.83;;;14.93;;
34984;SDS011;21190;58.750;17.004;2023-04-24T01:57:11;21.25;;;13.10;;
34984;SDS011;21190;58.750;17.004;2023-04-24T01:59:39;25.48;;;14.60;;
34984;SDS011;21190;58.750;17.004;2023-04-24T02:02:07;25.83;;;13.38;;
34984;SDS011;21190;58.750;17.004;2023-04-24T02:04:34;25.10;;;12.73;;
34984;SDS011;21190;58.750;17.004;2023-04-24T02:07:01;23.95;;;13.65;;
34984;SDS011;21190;58.750;17.004;2023-04-24T02:09:28;28.85;;;14.20;;
34984;SDS011;21190;58.750;17.004;2023-04-24T02:11:54;28.55;;;14.80;;
34984;SDS011;21190;58.750;17.004;2023-04-24T02:14:22;26.80;;;13.90;;
34984;SDS011;21190;58.750;17.004;2023-04-24T02:16:49;32.28;;;15.35;;
34984;SDS011;21190;58.750;17.004;2023-04-24T02:19:16;31.90;;;15.48;;
34984;SDS011;21190;58.750;17.004;2023-04-24T02:21:43;28.25;;;15.10;;
34984;SDS011;21190;58.750;17.004;2023-04-24T02:24:10;30.98;;;15.50;;
34984;SDS011;21190;58.750;17.004;2023-04-24T02:26:37;33.33;;;18.23;;
34984;SDS011;21190;58.750;17.004;2023-04-24T02:29:04;38.60;;;16.67;;
34984;SDS011;21190;58.750;17.004;2023-04-24T02:31:31;38.20;;;19.63;;
34984;SDS011;21190;58.750;17.004;2023-04-24T02:33:58;36.30;;;17.75;;
34984;SDS011;21190;58.750;17.004;2023-04-24T02:36:25;37.83;;;18.20;;
34984;SDS011;21190;58.750;17.004;2023-04-24T02:38:52;39.00;;;19.52;;
34984;SDS011;21190;58.750;17.004;2023-04-24T02:41:19;39.95;;;20.30;;
34984;SDS011;21190;58.750;17.004;2023-04-24T02:43:46;38.65;;;19.33;;
34984;SDS011;21190;58.750;17.004;2023-04-24T02:46:13;36.40;;;18.90;;
34984;SDS011;21190;58.750;17.004;2023-04-24T02:48:40;37.25;;;19.55;;
34984;SDS011;21190;58.750;17.004;2023-04-24T02:51:07;34.13;;;17.60;;
34984;SDS011;21190;58.750;17.004;2023-04-24T02:53:34;33.65;;;18.02;;
34984;SDS011;21190;58.750;17.004;2023-04-24T02:56:01;38.50;;;17.35;;
34984;SDS011;21190;58.750;17.004;2023-04-24T02:58:28;33.65;;;17.52;;
34984;SDS011;21190;58.750;17.004;2023-04-24T03:00:55;34.83;;;17.25;;
34984;SDS011;21190;58.750;17.004;2023-04-24T03:03:22;35.33;;;18.05;;
34984;SDS011;21190;58.750;17.004;2023-04-24T03:05:50;32.83;;;18.60;;
34984;SDS011;21190;58.750;17.004;2023-04-24T03:08:17;38.70;;;17.60;;
34984;SDS011;21190;58.750;17.004;2023-04-24T03:10:44;38.45;;;19.67;;
34984;SDS011;21190;58.750;17.004;2023-04-24T03:13:13;34.55;;;17.85;;
34984;SDS011;21190;58.750;17.004;2023-04-24T03:15:41;37.47;;;19.00;;
34984;SDS011;21190;58.750;17.004;2023-04-24T03:18:08;36.33;;;18.13;;
34984;SDS011;21190;58.750;17.004;2023-04-24T03:20:35;39.35;;;18.95;;
34984;SDS011;21190;58.750;17.004;2023-04-24T03:23:03;37.08;;;18.55;;
34984;SDS011;21190;58.750;17.004;2023-04-24T03:25:30;41.40;;;17.73;;
34984;SDS011;21190;58.750;17.004;2023-04-24T03:27:57;34.47;;;17.80;;
34984;SDS011;21190;58.750;17.004;2023-04-24T03:30:24;36.60;;;17.48;;
34984;SDS011;21190;58.750;17.004;2023-04-24T03:32:51;38.65;;;18.38;;
34984;SDS011;21190;58.750;17.004;2023-04-24T03:35:18;35.97;;;18.02;;
34984;SDS011;21190;58.750;17.004;2023-04-24T03:37:45;39.42;;;18.08;;
34984;SDS011;21190;58.750;17.004;2023-04-24T03:40:12;35.67;;;17.60;;
34984;SDS011;21190;58.750;17.004;2023-04-24T03:42:39;35.83;;;18.90;;
34984;SDS011;21190;58.750;17.004;2023-04-24T03:45:06;35.40;;;18.23;;
34984;SDS011;21190;58.750;17.004;2023-04-24T03:47:34;39.67;;;19.70;;
34984;SDS011;21190;58.750;17.004;2023-04-24T03:50:01;38.28;;;20.00;;
34984;SDS011;21190;58.750;17.004;2023-04-24T03:52:28;35.65;;;18.63;;
34984;SDS011;21190;58.750;17.004;2023-04-24T03:54:55;42.00;;;18.33;;
34984;SDS011;21190;58.750;17.004;2023-04-24T03:57:22;37.40;;;18.15;;
34984;SDS011;21190;58.750;17.004;2023-04-24T03:59:48;36.05;;;17.98;;
34984;SDS011;21190;58.750;17.004;2023-04-24T04:02:15;36.78;;;17.95;;
34984;SDS011;21190;58.750;17.004;2023-04-24T04:04:43;37.33;;;18.25;;
34984;SDS011;21190;58.750;17.004;2023-04-24T04:07:10;36.75;;;18.88;;
34984;SDS011;21190;58.750;17.004;2023-04-24T04:09:37;38.00;;;19.65;;
34984;SDS011;21190;58.750;17.004;2023-04-24T04:12:04;36.70;;;18.10;;
34984;SDS011;21190;58.750;17.004;2023-04-24T04:14:31;35.50;;;19.17;;
34984;SDS011;21190;58.750;17.004;2023-04-24T04:16:58;38.65;;;18.83;;
34984;SDS011;21190;58.750;17.004;2023-04-24T04:19:25;42.78;;;19.60;;
34984;SDS011;21190;58.750;17.004;2023-04-24T04:21:51;36.65;;;19.05;;
34984;SDS011;21190;58.750;17.004;2023-04-24T04:24:19;36.92;;;18.38;;
34984;SDS011;21190;58.750;17.004;2023-04-24T04:26:50;35.75;;;17.33;;
34984;SDS011;21190;58.750;17.004;2023-04-24T04:29:18;36.72;;;19.17;;
34984;SDS011;21190;58.750;17.004;2023-04-24T04:31:45;37.67;;;18.85;;
34984;SDS011;21190;58.750;17.004;2023-04-24T04:34:12;38.83;;;19.52;;
34984;SDS011;21190;58.750;17.004;2023-04-24T04:36:40;40.72;;;18.92;;
34984;SDS011;21190;58.750;17.004;2023-04-24T04:39:09;39.72;;;18.35;;
34984;SDS011;21190;58.750;17.004;2023-04-24T04:41:36;39.17;;;18.77;;
34984;SDS011;21190;58.750;17.004;2023-04-24T04:44:03;36.28;;;18.33;;
34984;SDS011;21190;58.750;17.004;2023-04-24T04:46:31;37.53;;;19.80;;
34984;SDS011;21190;58.750;17.004;2023-04-24T04:49:02;40.85;;;20.08;;
34984;SDS011;21190;58.750;17.004;2023-04-24T04:51:29;42.55;;;19.70;;
34984;SDS011;21190;58.750;17.004;2023-04-24T04:53:57;41.42;;;19.90;;
34984;SDS011;21190;58.750;17.004;2023-04-24T04:56:24;41.88;;;20.95;;
34984;SDS011;21190;58.750;17.004;2023-04-24T04:58:51;39.78;;;19.45;;
34984;SDS011;21190;58.750;17.004;2023-04-24T05:01:18;42.67;;;20.05;;
34984;SDS011;21190;58.750;17.004;2023-04-24T05:03:45;45.47;;;20.02;;
34984;SDS011;21190;58.750;17.004;2023-04-24T05:06:12;39.63;;;18.45;;
34984;SDS011;21190;58.750;17.004;2023-04-24T05:08:39;40.50;;;19.75;;
34984;SDS011;21190;58.750;17.004;2023-04-24T05:11:06;40.33;;;18.98;;
34984;SDS011;21190;58.750;17.004;2023-04-24T05:13:33;40.33;;;18.75;;
34984;SDS011;21190;58.750;17.004;2023-04-24T05:16:06;36.15;;;18.60;;
34984;SDS011;21190;58.750;17.004;2023-04-24T05:18:33;40.75;;;19.17;;
34984;SDS011;21190;58.750;17.004;2023-04-24T05:21:00;43.47;;;18.90;;
34984;SDS011;21190;58.750;17.004;2023-04-24T05:23:27;39.10;;;19.70;;
34984;SDS011;21190;58.750;17.004;2023-04-24T05:25:54;39.05;;;19.90;;
34984;SDS011;21190;58.750;17.004;2023-04-24T05:28:21;43.10;;;19.05;;
34984;SDS011;21190;58.750;17.004;2023-04-24T05:30:48;42.00;;;19.35;;
34984;SDS011;21190;58.750;17.004;2023-04-24T05:33:16;43.28;;;19.42;;
34984;SDS011;21190;58.750;17.004;2023-04-24T05:35:42;37.20;;;18.80;;
34984;SDS011;21190;58.750;17.004;2023-04-24T05:38:13;41.28;;;19.13;;
34984;SDS011;21190;58.750;17.004;2023-04-24T05:40:40;40.53;;;19.15;;
34984;SDS011;21190;58.750;17.004;2023-04-24T05:43:07;34.30;;;17.65;;
34984;SDS011;21190;58.750;17.004;2023-04-24T05:45:34;35.70;;;17.88;;
34984;SDS011;21190;58.750;17.004;2023-04-24T05:48:02;35.63;;;17.60;;
34984;SDS011;21190;58.750;17.004;2023-04-24T05:50:29;29.00;;;15.60;;
34984;SDS011;21190;58.750;17.004;2023-04-24T05:52:57;33.13;;;15.73;;
34984;SDS011;21190;58.750;17.004;2023-04-24T05:55:29;35.38;;;16.75;;
34984;SDS011;21190;58.750;17.004;2023-04-24T05:57:57;25.42;;;13.43;;
34984;SDS011;21190;58.750;17.004;2023-04-24T06:00:24;28.65;;;13.07;;
34984;SDS011;21190;58.750;17.004;2023-04-24T06:02:51;25.98;;;14.15;;
34984;SDS011;21190;58.750;17.004;2023-04-24T06:05:19;28.60;;;13.63;;
34984;SDS011;21190;58.750;17.004;2023-04-24T06:07:47;23.92;;;13.20;;
34984;SDS011;21190;58.750;17.004;2023-04-24T06:10:14;21.95;;;12.93;;
34984;SDS011;21190;58.750;17.004;2023-04-24T06:12:41;25.17;;;13.25;;
34984;SDS011;21190;58.750;17.004;2023-04-24T06:15:09;23.13;;;12.60;;
34984;SDS011;21190;58.750;17.004;2023-04-24T06:17:36;22.45;;;11.52;;
34984;SDS011;21190;58.750;17.004;2023-04-24T06:20:03;26.38;;;12.32;;
34984;SDS011;21190;58.750;17.004;2023-04-24T06:22:32;25.90;;;12.73;;
34984;SDS011;21190;58.750;17.004;2023-04-24T06:25:00;25.42;;;12.77;;
34984;SDS011;21190;58.750;17.004;2023-04-24T06:27:27;19.13;;;11.55;;
34984;SDS011;21190;58.750;17.004;2023-04-24T06:29:54;21.83;;;12.25;;
34984;SDS011;21190;58.750;17.004;2023-04-24T06:32:22;21.77;;;10.65;;
34984;SDS011;21190;58.750;17.004;2023-04-24T06:34:51;24.73;;;12.13;;
34984;SDS011;21190;58.750;17.004;2023-04-24T06:37:19;22.10;;;12.15;;
34984;SDS011;21190;58.750;17.004;2023-04-24T06:39:46;24.15;;;12.10;;
34984;SDS011;21190;58.750;17.004;2023-04-24T06:42:13;22.48;;;10.88;;
34984;SDS011;21190;58.750;17.004;2023-04-24T06:44:40;23.08;;;11.80;;
34984;SDS011;21190;58.750;17.004;2023-04-24T06:47:08;24.70;;;12.07;;
34984;SDS011;21190;58.750;17.004;2023-04-24T06:49:36;23.13;;;12.32;;
34984;SDS011;21190;58.750;17.004;2023-04-24T06:52:03;21.63;;;11.02;;
34984;SDS011;21190;58.750;17.004;2023-04-24T06:54:31;22.85;;;10.50;;
34984;SDS011;21190;58.750;17.004;2023-04-24T06:56:58;25.08;;;10.93;;
34984;SDS011;21190;58.750;17.004;2023-04-24T06:59:27;18.80;;;10.73;;
34984;SDS011;21190;58.750;17.004;2023-04-24T07:01:54;23.48;;;11.43;;
34984;SDS011;21190;58.750;17.004;2023-04-24T07:04:22;22.15;;;11.48;;
34984;SDS011;21190;58.750;17.004;2023-04-24T07:06:51;21.90;;;10.82;;
34984;SDS011;21190;58.750;17.004;2023-04-24T07:09:23;20.95;;;12.00;;
34984;SDS011;21190;58.750;17.004;2023-04-24T07:11:52;24.80;;;11.77;;
34984;SDS011;21190;58.750;17.004;2023-04-24T07:14:20;20.50;;;10.68;;
34984;SDS011;21190;58.750;17.004;2023-04-24T07:16:47;22.35;;;10.32;;
34984;SDS011;21190;58.750;17.004;2023-04-24T07:19:14;19.65;;;10.73;;
34984;SDS011;21190;58.750;17.004;2023-04-24T07:21:41;23.50;;;11.03;;
34984;SDS011;21190;58.750;17.004;2023-04-24T07:24:08;20.15;;;11.10;;
34984;SDS011;21190;58.750;17.004;2023-04-24T07:26:37;20.88;;;10.95;;
34984;SDS011;21190;58.750;17.004;2023-04-24T07:29:05;23.80;;;11.30;;
34984;SDS011;21190;58.750;17.004;2023-04-24T07:31:33;17.80;;;10.82;;
34984;SDS011;21190;58.750;17.004;2023-04-24T07:34:01;14.25;;;9.52;;
34984;SDS011;21190;58.750;17.004;2023-04-24T07:36:28;18.48;;;10.02;;
34984;SDS011;21190;58.750;17.004;2023-04-24T07:38:55;14.30;;;9.38;;
34984;SDS011;21190;58.750;17.004;2023-04-24T07:41:25;18.80;;;9.63;;
34984;SDS011;21190;58.750;17.004;2023-04-24T07:43:53;16.02;;;10.10;;
34984;SDS011;21190;58.750;17.004;2023-04-24T07:46:20;16.05;;;9.45;;
34984;SDS011;21190;58.750;17.004;2023-04-24T07:48:48;17.30;;;9.57;;
34984;SDS011;21190;58.750;17.004;2023-04-24T07:54:04;17.15;;;8.77;;
34984;SDS011;21190;58.750;17.004;2023-04-24T07:56:32;15.70;;;9.80;;
34984;SDS011;21190;58.750;17.004;2023-04-24T07:58:59;17.98;;;8.90;;
34984;SDS011;21190;58.750;17.004;2023-04-24T08:01:27;14.02;;;8.65;;
34984;SDS011;21190;58.750;17.004;2023-04-24T08:03:54;18.35;;;8.18;;
34984;SDS011;21190;58.750;17.004;2023-04-24T08:06:22;17.98;;;8.80;;
34984;SDS011;21190;58.750;17.004;2023-04-24T08:08:49;16.13;;;8.35;;
34984;SDS011;21190;58.750;17.004;2023-04-24T08:11:17;14.40;;;8.60;;
34984;SDS011;21190;58.750;17.004;2023-04-24T08:13:44;11.57;;;7.45;;
34984;SDS011;21190;58.750;17.004;2023-04-24T08:16:11;15.60;;;8.15;;
34984;SDS011;21190;58.750;17.004;2023-04-24T08:18:38;16.48;;;9.00;;
34984;SDS011;21190;58.750;17.004;2023-04-24T08:21:06;14.63;;;8.60;;
34984;SDS011;21190;58.750;17.004;2023-04-24T08:23:33;13.93;;;7.45;;
34984;SDS011;21190;58.750;17.004;2023-04-24T08:26:00;15.63;;;9.60;;
34984;SDS011;21190;58.750;17.004;2023-04-24T08:28:26;15.05;;;8.80;;
34984;SDS011;21190;58.750;17.004;2023-04-24T08:30:53;16.05;;;8.77;;
34984;SDS011;21190;58.750;17.004;2023-04-24T08:33:22;18.88;;;9.70;;
34984;SDS011;21190;58.750;17.004;2023-04-24T08:35:49;17.98;;;8.70;;
34984;SDS011;21190;58.750;17.004;2023-04-24T08:38:16;16.75;;;9.00;;
34984;SDS011;21190;58.750;17.004;2023-04-24T08:40:43;20.73;;;9.15;;
34984;SDS011;21190;58.750;17.004;2023-04-24T08:43:12;18.20;;;8.35;;
34984;SDS011;21190;58.750;17.004;2023-04-24T08:45:40;24.50;;;8.88;;
34984;SDS011;21190;58.750;17.004;2023-04-24T08:48:07;16.60;;;7.68;;
34984;SDS011;21190;58.750;17.004;2023-04-24T08:50:52;16.17;;;7.87;;
34984;SDS011;21190;58.750;17.004;2023-04-24T08:53:20;17.05;;;8.93;;
34984;SDS011;21190;58.750;17.004;2023-04-24T08:55:47;17.25;;;8.93;;
34984;SDS011;21190;58.750;17.004;2023-04-24T08:58:16;16.42;;;9.15;;
34984;SDS011;21190;58.750;17.004;2023-04-24T09:00:44;17.35;;;9.05;;
34984;SDS011;21190;58.750;17.004;2023-04-24T09:03:16;14.38;;;8.35;;
34984;SDS011;21190;58.750;17.004;2023-04-24T09:05:44;20.83;;;9.27;;
34984;SDS011;21190;58.750;17.004;2023-04-24T09:08:13;15.00;;;8.30;;
34984;SDS011;21190;58.750;17.004;2023-04-24T09:10:42;16.80;;;8.63;;
34984;SDS011;21190;58.750;17.004;2023-04-24T09:13:09;15.70;;;9.38;;
34984;SDS011;21190;58.750;17.004;2023-04-24T09:15:37;17.92;;;9.75;;
34984;SDS011;21190;58.750;17.004;2023-04-24T09:18:05;15.63;;;8.68;;
34984;SDS011;21190;58.750;17.004;2023-04-24T09:20:32;16.35;;;8.70;;
34984;SDS011;21190;58.750;17.004;2023-04-24T09:23:02;15.80;;;8.75;;
34984;SDS011;21190;58.750;17.004;2023-04-24T09:25:32;14.07;;;8.10;;
34984;SDS011;21190;58.750;17.004;2023-04-24T09:28:04;17.52;;;8.88;;
34984;SDS011;21190;58.750;17.004;2023-04-24T09:30:32;16.90;;;9.18;;
34984;SDS011;21190;58.750;17.004;2023-04-24T09:33:09;13.90;;;8.82;;
34984;SDS011;21190;58.750;17.004;2023-04-24T09:35:42;14.13;;;9.18;;
34984;SDS011;21190;58.750;17.004;2023-04-24T09:38:16;16.20;;;9.20;;
34984;SDS011;21190;58.750;17.004;2023-04-24T09:40:43;15.23;;;8.73;;
34984;SDS011;21190;58.750;17.004;2023-04-24T09:43:10;13.35;;;8.63;;
34984;SDS011;21190;58.750;17.004;2023-04-24T09:45:38;18.77;;;9.77;;
34984;SDS011;21190;58.750;17.004;2023-04-24T09:48:09;14.93;;;9.45;;
34984;SDS011;21190;58.750;17.004;2023-04-24T09:50:37;17.27;;;9.25;;
34984;SDS011;21190;58.750;17.004;2023-04-24T09:53:04;19.00;;;9.75;;
34984;SDS011;21190;58.750;17.004;2023-04-24T09:55:41;17.90;;;9.25;;
34984;SDS011;21190;58.750;17.004;2023-04-24T09:58:12;13.30;;;9.13;;
34984;SDS011;21190;58.750;17.004;2023-04-24T10:00:39;14.40;;;8.40;;
34984;SDS011;21190;58.750;17.004;2023-04-24T10:03:06;17.02;;;8.82;;
34984;SDS011;21190;58.750;17.004;2023-04-24T10:05:35;17.27;;;9.25;;
34984;SDS011;21190;58.750;17.004;2023-04-24T10:08:05;14.05;;;9.20;;
34984;SDS011;21190;58.750;17.004;2023-04-24T10:10:34;15.40;;;9.15;;
34984;SDS011;21190;58.750;17.004;2023-04-24T10:13:05;16.38;;;9.77;;
34984;SDS011;21190;58.750;17.004;2023-04-24T10:15:36;19.20;;;9.82;;
34984;SDS011;21190;58.750;17.004;2023-04-24T10:18:07;23.40;;;10.63;;
34984;SDS011;21190;58.750;17.004;2023-04-24T10:20:36;18.55;;;10.27;;
34984;SDS011;21190;58.750;17.004;2023-04-24T10:23:05;18.98;;;10.07;;
34984;SDS011;21190;58.750;17.004;2023-04-24T10:25:33;16.52;;;9.43;;
34984;SDS011;21190;58.750;17.004;2023-04-24T10:28:01;20.70;;;10.57;;
34984;SDS011;21190;58.750;17.004;2023-04-24T10:30:30;19.65;;;10.25;;
34984;SDS011;21190;58.750;17.004;2023-04-24T10:33:04;18.42;;;9.55;;
34984;SDS011;21190;58.750;17.004;2023-04-24T10:35:34;18.25;;;9.98;;
34984;SDS011;21190;58.750;17.004;2023-04-24T10:38:06;19.38;;;9.82;;
34984;SDS011;21190;58.750;17.004;2023-04-24T10:40:36;16.92;;;9.27;;
34984;SDS011;21190;58.750;17.004;2023-04-24T10:43:04;17.40;;;9.60;;
34984;SDS011;21190;58.750;17.004;2023-04-24T10:45:32;18.42;;;9.15;;
34984;SDS011;21190;58.750;17.004;2023-04-24T10:48:03;20.40;;;11.40;;
34984;SDS011;21190;58.750;17.004;2023-04-24T10:50:42;18.52;;;10.57;;
34984;SDS011;21190;58.750;17.004;2023-04-24T10:53:15;16.88;;;9.38;;
34984;SDS011;21190;58.750;17.004;2023-04-24T10:55:51;16.45;;;8.73;;
34984;SDS011;21190;58.750;17.004;2023-04-24T11:01:46;16.33;;;7.90;;
34984;SDS011;21190;58.750;17.004;2023-04-24T11:04:05;16.00;;;8.55;;
34984;SDS011;21190;58.750;17.004;2023-04-24T11:06:36;18.23;;;8.40;;
34984;SDS011;21190;58.750;17.004;2023-04-24T11:11:35;18.35;;;9.00;;
34984;SDS011;21190;58.750;17.004;2023-04-24T11:14:04;19.27;;;8.52;;
34984;SDS011;21190;58.750;17.004;2023-04-24T11:21:46;17.23;;;7.25;;
34984;SDS011;21190;58.750;17.004;2023-04-24T11:29:38;15.48;;;7.10;;
34984;SDS011;21190;58.750;17.004;2023-04-24T11:37:40;13.07;;;6.18;;
34984;SDS011;21190;58.750;17.004;2023-04-24T11:42:39;10.77;;;5.90;;
34984;SDS011;21190;58.750;17.004;2023-04-24T11:45:08;13.15;;;5.95;;
34984;SDS011;21190;58.750;17.004;2023-04-24T11:47:36;13.45;;;5.85;;
34984;SDS011;21190;58.750;17.004;2023-04-24T11:50:04;12.48;;;5.40;;
34984;SDS011;21190;58.750;17.004;2023-04-24T11:52:36;14.30;;;5.60;;
34984;SDS011;21190;58.750;17.004;2023-04-24T11:55:29;10.60;;;4.93;;
34984;SDS011;21190;58.750;17.004;2023-04-24T11:57:56;11.88;;;5.15;;
34984;SDS011;21190;58.750;17.004;2023-04-24T12:00:25;8.73;;;5.05;;
34984;SDS011;21190;58.750;17.004;2023-04-24T12:03:04;10.48;;;5.18;;
34984;SDS011;21190;58.750;17.004;2023-04-24T12:05:36;11.30;;;4.60;;
34984;SDS011;21190;58.750;17.004;2023-04-24T12:08:05;8.07;;;4.53;;
34984;SDS011;21190;58.750;17.004;2023-04-24T12:10:33;7.25;;;4.28;;
34984;SDS011;21190;58.750;17.004;2023-04-24T12:13:01;9.93;;;4.45;;
34984;SDS011;21190;58.750;17.004;2023-04-24T12:15:28;10.80;;;4.47;;
34984;SDS011;21190;58.750;17.004;2023-04-24T12:17:56;7.43;;;4.05;;
34984;SDS011;21190;58.750;17.004;2023-04-24T12:20:27;10.30;;;4.40;;
34984;SDS011;21190;58.750;17.004;2023-04-24T12:22:56;5.43;;;3.70;;
34984;SDS011;21190;58.750;17.004;2023-04-24T12:25:26;7.93;;;4.00;;
34984;SDS011;21190;58.750;17.004;2023-04-24T12:30:32;10.50;;;4.43;;
34984;SDS011;21190;58.750;17.004;2023-04-24T12:33:01;8.68;;;3.55;;
34984;SDS011;21190;58.750;17.004;2023-04-24T12:35:30;9.10;;;4.10;;
34984;SDS011;21190;58.750;17.004;2023-04-24T12:38:09;7.38;;;4.13;;
34984;SDS011;21190;58.750;17.004;2023-04-24T12:40:39;8.07;;;4.20;;
34984;SDS011;21190;58.750;17.004;2023-04-24T12:43:19;7.40;;;4.07;;
34984;SDS011;21190;58.750;17.004;2023-04-24T12:45:47;10.35;;;4.93;;
34984;SDS011;21190;58.750;17.004;2023-04-24T12:48:14;9.35;;;4.38;;
34984;SDS011;21190;58.750;17.004;2023-04-24T12:50:42;8.32;;;4.60;;
34984;SDS011;21190;58.750;17.004;2023-04-24T12:53:12;10.20;;;5.40;;
34984;SDS011;21190;58.750;17.004;2023-04-24T12:55:40;11.00;;;5.03;;
34984;SDS011;21190;58.750;17.004;2023-04-24T12:58:07;8.85;;;4.93;;
34984;SDS011;21190;58.750;17.004;2023-04-24T13:00:34;10.77;;;5.10;;
34984;SDS011;21190;58.750;17.004;2023-04-24T13:03:01;9.65;;;5.57;;
34984;SDS011;21190;58.750;17.004;2023-04-24T13:05:29;9.30;;;4.82;;
34984;SDS011;21190;58.750;17.004;2023-04-24T13:07:57;10.43;;;4.82;;
34984;SDS011;21190;58.750;17.004;2023-04-24T13:10:24;8.85;;;5.20;;
34984;SDS011;21190;58.750;17.004;2023-04-24T13:12:51;10.45;;;4.10;;
34984;SDS011;21190;58.750;17.004;2023-04-24T13:15:18;12.02;;;4.65;;
34984;SDS011;21190;58.750;17.004;2023-04-24T13:17:45;14.00;;;5.35;;
34984;SDS011;21190;58.750;17.004;2023-04-24T13:20:12;13.90;;;5.78;;
34984;SDS011;21190;58.750;17.004;2023-04-24T13:22:39;10.55;;;4.65;;
34984;SDS011;21190;58.750;17.004;2023-04-24T13:25:06;16.73;;;5.43;;
34984;SDS011;21190;58.750;17.004;2023-04-24T13:27:33;7.93;;;4.15;;
34984;SDS011;21190;58.750;17.004;2023-04-24T13:30:00;8.55;;;4.75;;
34984;SDS011;21190;58.750;17.004;2023-04-24T13:32:27;15.77;;;4.70;;
34984;SDS011;21190;58.750;17.004;2023-04-24T13:34:56;8.95;;;4.32;;
34984;SDS011;21190;58.750;17.004;2023-04-24T13:37:23;8.18;;;4.10;;
34984;SDS011;21190;58.750;17.004;2023-04-24T13:39:49;10.23;;;4.28;;
34984;SDS011;21190;58.750;17.004;2023-04-24T13:42:17;8.05;;;3.90;;
34984;SDS011;21190;58.750;17.004;2023-04-24T13:44:45;9.23;;;3.97;;
34984;SDS011;21190;58.750;17.004;2023-04-24T13:47:12;9.32;;;3.90;;
34984;SDS011;21190;58.750;17.004;2023-04-24T13:49:39;8.43;;;3.75;;
34984;SDS011;21190;58.750;17.004;2023-04-24T13:52:06;7.32;;;4.25;;
34984;SDS011;21190;58.750;17.004;2023-04-24T13:54:33;10.55;;;4.05;;
34984;SDS011;21190;58.750;17.004;2023-04-24T13:57:00;9.45;;;3.72;;
34984;SDS011;21190;58.750;17.004;2023-04-24T13:59:29;8.88;;;4.05;;
34984;SDS011;21190;58.750;17.004;2023-04-24T14:01:56;8.52;;;4.38;;
34984;SDS011;21190;58.750;17.004;2023-04-24T14:04:23;11.02;;;4.20;;
34984;SDS011;21190;58.750;17.004;2023-04-24T14:06:51;9.55;;;3.92;;
34984;SDS011;21190;58.750;17.004;2023-04-24T14:09:18;8.68;;;4.47;;
34984;SDS011;21190;58.750;17.004;2023-04-24T14:11:45;11.57;;;4.10;;
34984;SDS011;21190;58.750;17.004;2023-04-24T14:14:11;10.60;;;3.88;;
34984;SDS011;21190;58.750;17.004;2023-04-24T14:16:38;8.82;;;3.90;;
34984;SDS011;21190;58.750;17.004;2023-04-24T14:19:06;11.57;;;4.22;;
34984;SDS011;21190;58.750;17.004;2023-04-24T14:21:33;9.43;;;3.72;;
34984;SDS011;21190;58.750;17.004;2023-04-24T14:24:00;8.77;;;4.00;;
34984;SDS011;21190;58.750;17.004;2023-04-24T14:26:27;6.70;;;3.58;;
34984;SDS011;21190;58.750;17.004;2023-04-24T14:28:54;7.50;;;4.13;;
34984;SDS011;21190;58.750;17.004;2023-04-24T14:31:36;7.15;;;3.97;;
34984;SDS011;21190;58.750;17.004;2023-04-24T14:34:03;7.72;;;3.55;;
34984;SDS011;21190;58.750;17.004;2023-04-24T14:36:30;7.85;;;4.22;;
34984;SDS011;21190;58.750;17.004;2023-04-24T14:38:57;7.03;;;4.10;;
34984;SDS011;21190;58.750;17.004;2023-04-24T14:41:24;9.05;;;4.40;;
34984;SDS011;21190;58.750;17.004;2023-04-24T14:43:51;11.13;;;4.47;;
34984;SDS011;21190;58.750;17.004;2023-04-24T14:46:18;10.27;;;4.28;;
34984;SDS011;21190;58.750;17.004;2023-04-24T14:48:46;14.60;;;4.95;;
34984;SDS011;21190;58.750;17.004;2023-04-24T14:51:13;8.30;;;3.95;;
34984;SDS011;21190;58.750;17.004;2023-04-24T14:53:40;13.85;;;5.00;;